Tcsg 904 — TBVK — position and weather

sailwx.info

Track history (hours):
 
Tides and Currents Weather Stations Pressure Air Temp Water Temp Dewpoint Dewpoint Depression Visibility Wind Speed Wind Dir Waves Ship Positions

Tcsg 904

Last reported at 2017-Oct-11 00:00 UTC. Time now 2017-Nov-19 20:02 UTC.
Position N 36°50' E 030°36'.
Warning: this ship's position is 39 days out of date.

Length 19 m.

Type: SAR. MMSI: 271030171.

Date/timePositionNaut miles runAvg speedWind from/ knotsBaromVisibWave heightAir tempDewpointWater temp
2017-Oct-11 00:00N 36°50' E 030°36'0 0.0
2017-Oct-10 23:30N 36°50' E 030°36'0 0.0
2017-Oct-10 23:00N 36°50' E 030°36'0 0.0
2017-Oct-10 22:30N 36°50' E 030°36'0 0.0
2017-Oct-10 22:00N 36°50' E 030°36'0 0.0
2017-Oct-10 21:30N 36°50' E 030°36'0 0.0
2017-Oct-10 21:00N 36°50' E 030°36'0 0.0
2017-Oct-10 20:30N 36°50' E 030°36'0 0.0
2017-Oct-10 20:00N 36°50' E 030°36'0 0.0
2017-Oct-10 19:30N 36°50' E 030°36'0 0.0
2017-Oct-10 19:00N 36°50' E 030°36'0 0.0
2017-Oct-10 18:30N 36°50' E 030°36'0 0.0
2017-Oct-10 18:00N 36°50' E 030°36'0 0.0
2017-Oct-10 17:30N 36°50' E 030°36'0 0.0
2017-Oct-10 17:00N 36°50' E 030°36'0 0.0
2017-Oct-10 16:30N 36°50' E 030°36'0 0.0
2017-Oct-10 16:00N 36°50' E 030°36'0 0.0
2017-Oct-10 15:30N 36°50' E 030°36'0 0.0
2017-Oct-10 15:00N 36°50' E 030°36'0 0.0
2017-Oct-10 14:00N 36°50' E 030°36'0 0.0
2017-Oct-10 13:30N 36°50' E 030°36'0 0.0
2017-Oct-10 13:00N 36°50' E 030°36'0 0.0
2017-Oct-10 12:30N 36°50' E 030°36'917.7
2017-Oct-10 12:01N 36°42' E 030°37'5 9.8
2017-Oct-10 11:30N 36°37' E 030°36'1 2.8
2017-Oct-10 11:00N 36°36' E 030°34'0 0.0
2017-Oct-10 10:30N 36°36' E 030°34'1223.7
2017-Oct-10 10:00N 36°48' E 030°37'1 2.4
2017-Oct-10 09:31N 36°49' E 030°37'1 2.3
2017-Oct-10 09:00N 36°50' E 030°37'0 1.0
2017-Oct-10 08:31N 36°50' E 030°36'0 0.0
2017-Oct-10 08:01N 36°50' E 030°36'0 0.0
2017-Oct-10 07:31N 36°50' E 030°36'0 0.0
2017-Oct-10 07:01N 36°50' E 030°36'0 0.0
2017-Oct-10 06:31N 36°50' E 030°36'0 0.0
2017-Oct-10 06:01N 36°50' E 030°36'0 0.0
2017-Oct-10 05:31N 36°50' E 030°36'0 0.0
2017-Oct-10 05:01N 36°50' E 030°36'0 0.0
2017-Oct-10 04:31N 36°50' E 030°36'0 0.0
2017-Oct-10 04:00N 36°50' E 030°36'0 0.0
2017-Oct-10 03:31N 36°50' E 030°36'0 0.0
2017-Oct-10 03:00N 36°50' E 030°36'0 0.0
2017-Oct-10 02:31N 36°50' E 030°36'0 0.0
2017-Oct-10 02:01N 36°50' E 030°36'0 0.0
2017-Oct-10 01:31N 36°50' E 030°36'0 0.0
2017-Oct-10 01:01N 36°50' E 030°36'0 0.0
2017-Oct-10 00:31N 36°50' E 030°36'0 0.0
2017-Oct-10 00:01N 36°50' E 030°36'0 0.0
2017-Oct-09 23:31N 36°50' E 030°36'0 0.0
2017-Oct-09 23:01N 36°50' E 030°36'0 0.0
2017-Oct-09 22:31N 36°50' E 030°36'0 0.0
2017-Oct-09 22:01N 36°50' E 030°36'0 0.0
2017-Oct-09 21:31N 36°50' E 030°36'0 0.0
2017-Oct-09 21:01N 36°50' E 030°36'0 0.0
2017-Oct-09 20:31N 36°50' E 030°36'0 0.0
2017-Oct-09 20:00N 36°50' E 030°36'0 0.0
2017-Oct-09 19:31N 36°50' E 030°36'0 0.0
2017-Oct-09 19:01N 36°50' E 030°36'0 0.0
2017-Oct-09 18:31N 36°50' E 030°36'0 0.0
2017-Oct-09 18:01N 36°50' E 030°36'0 0.0
2017-Oct-09 17:31N 36°50' E 030°36'0 0.0
2017-Oct-09 17:01N 36°50' E 030°36'0 0.0
2017-Oct-09 16:30N 36°50' E 030°36'0 0.0
2017-Oct-09 16:00N 36°50' E 030°36'0 0.0
2017-Oct-09 15:31N 36°50' E 030°36'0 0.0
2017-Oct-09 15:01N 36°50' E 030°36'0 0.0
2017-Oct-09 14:31N 36°50' E 030°36'0 0.0
2017-Oct-09 14:01N 36°50' E 030°36'0 0.0
2017-Oct-09 13:31N 36°50' E 030°36'0 0.0
2017-Oct-09 13:01N 36°50' E 030°36'0 0.0
2017-Oct-09 12:31N 36°50' E 030°36'0 0.0
2017-Oct-09 12:01N 36°50' E 030°36'3 6.3
2017-Oct-09 11:31N 36°47' E 030°36'1 1.3
2017-Oct-09 11:01N 36°48' E 030°36'1 1.5
2017-Oct-09 10:31N 36°48' E 030°36'2 3.8
2017-Oct-09 10:00N 36°50' E 030°36'0 0.0
2017-Oct-09 09:30N 36°50' E 030°36'0 0.0
2017-Oct-09 09:00N 36°50' E 030°36'0 0.0
2017-Oct-09 08:30N 36°50' E 030°36'0 0.0
2017-Oct-09 08:00N 36°50' E 030°36'0 0.0
2017-Oct-09 07:30N 36°50' E 030°36'0 0.0
2017-Oct-09 07:00N 36°50' E 030°36'0 0.0
2017-Oct-09 06:30N 36°50' E 030°36'0 0.0
2017-Oct-09 06:00N 36°50' E 030°36'0 0.0
2017-Oct-09 05:30N 36°50' E 030°36'0 0.0
2017-Oct-09 05:00N 36°50' E 030°36'0 0.0
2017-Oct-09 04:30N 36°50' E 030°36'0 0.0
2017-Oct-09 04:00N 36°50' E 030°36'0 0.0
2017-Oct-09 03:30N 36°50' E 030°36'0 0.0
2017-Oct-09 03:00N 36°50' E 030°36'0 0.0
2017-Oct-09 02:30N 36°50' E 030°36'0 0.0
2017-Oct-09 02:00N 36°50' E 030°36'0 0.0
2017-Oct-09 01:30N 36°50' E 030°36'0 0.0
2017-Oct-09 01:00N 36°50' E 030°36'0 0.0
2017-Oct-09 00:30N 36°50' E 030°36'0 0.0
2017-Oct-09 00:01N 36°50' E 030°36'0 0.0
2017-Oct-08 23:30N 36°50' E 030°36'0 0.0
2017-Oct-08 23:00N 36°50' E 030°36'0 0.0
2017-Oct-08 22:30N 36°50' E 030°36'0 0.0
2017-Oct-08 22:00N 36°50' E 030°36'0 0.0
2017-Oct-08 21:30N 36°50' E 030°36'0 0.0
2017-Oct-08 21:00N 36°50' E 030°36'0 0.0
2017-Oct-08 20:30N 36°50' E 030°36'0 0.0
2017-Oct-08 20:00N 36°50' E 030°36'0 0.0
2017-Oct-08 19:30N 36°50' E 030°36'0 0.0
2017-Oct-08 19:00N 36°50' E 030°36'0 0.0
2017-Oct-08 18:30N 36°50' E 030°36'0 0.0
2017-Oct-08 18:00N 36°50' E 030°36'0 0.0
2017-Oct-08 17:30N 36°50' E 030°36'0 0.0
2017-Oct-08 17:00N 36°50' E 030°36'0 0.0
2017-Oct-08 16:30N 36°50' E 030°36'0 0.0
2017-Oct-08 16:00N 36°50' E 030°36'0 0.0
2017-Oct-08 15:30N 36°50' E 030°36'0 0.0
2017-Oct-08 15:00N 36°50' E 030°36'0 0.0
2017-Oct-08 14:30N 36°50' E 030°36'0 0.0
2017-Oct-08 14:00N 36°50' E 030°36'0 0.0
2017-Oct-08 13:30N 36°50' E 030°36'0 0.0
2017-Oct-08 13:00N 36°50' E 030°36'0 0.0
2017-Oct-08 12:30N 36°50' E 030°36'0 0.0
2017-Oct-08 12:00N 36°50' E 030°36'0 0.0
2017-Oct-08 11:30N 36°50' E 030°36'0 0.0
2017-Oct-08 11:00N 36°50' E 030°36'0 0.0
2017-Oct-08 10:30N 36°50' E 030°36'0 0.0
2017-Oct-08 10:00N 36°50' E 030°36'0 0.0
2017-Oct-08 09:30N 36°50' E 030°36'0 0.0
2017-Oct-08 09:01N 36°50' E 030°36'0 0.0
2017-Oct-08 08:30N 36°50' E 030°36'0 0.0
2017-Oct-08 08:01N 36°50' E 030°36'0 0.0
2017-Oct-08 07:30N 36°50' E 030°36'0 0.0
2017-Oct-08 07:00N 36°50' E 030°36'0 0.0
2017-Oct-08 06:30N 36°50' E 030°36'0 0.0
2017-Oct-08 06:00N 36°50' E 030°36'0 0.0
2017-Oct-08 05:30N 36°50' E 030°36'0 0.0
2017-Oct-08 05:00N 36°50' E 030°36'0 0.0
2017-Oct-08 04:30N 36°50' E 030°36'0 0.0
2017-Oct-08 04:00N 36°50' E 030°36'0 0.0
2017-Oct-08 03:30N 36°50' E 030°36'0 0.0
2017-Oct-08 03:00N 36°50' E 030°36'0 0.0
2017-Oct-08 02:30N 36°50' E 030°36'0 0.0
2017-Oct-08 02:00N 36°50' E 030°36'0 0.0
2017-Oct-08 01:30N 36°50' E 030°36'0 0.0
2017-Oct-08 01:00N 36°50' E 030°36'0 0.0
2017-Oct-08 00:30N 36°50' E 030°36'0 0.0
2017-Oct-08 00:00N 36°50' E 030°36'0 0.0
2017-Oct-07 23:30N 36°50' E 030°36'0 0.0
2017-Oct-07 23:00N 36°50' E 030°36'0 0.0
2017-Oct-07 22:30N 36°50' E 030°36'0 0.0
2017-Oct-07 22:00N 36°50' E 030°36'0 0.0
2017-Oct-07 21:30N 36°50' E 030°36'0 0.0
2017-Oct-07 21:00N 36°50' E 030°36'0 0.0
2017-Oct-07 20:30N 36°50' E 030°36'0 0.0
2017-Oct-07 20:00N 36°50' E 030°36'0 0.0
2017-Oct-07 19:30N 36°50' E 030°36'0 0.0
2017-Oct-07 19:00N 36°50' E 030°36'0 0.0
2017-Oct-07 18:30N 36°50' E 030°36'0 0.0
2017-Oct-07 18:00N 36°50' E 030°36'0 0.0
2017-Oct-07 17:30N 36°50' E 030°36'0 0.0
2017-Oct-07 17:00N 36°50' E 030°36'0 0.0
2017-Oct-07 16:30N 36°50' E 030°36'0 0.0
2017-Oct-07 16:00N 36°50' E 030°36'0 0.0
2017-Oct-07 15:30N 36°50' E 030°36'0 0.0
2017-Oct-07 15:00N 36°50' E 030°36'0 0.0
2017-Oct-07 14:30N 36°50' E 030°36'0 0.0
2017-Oct-07 14:00N 36°50' E 030°36'0 0.0
2017-Oct-07 13:30N 36°50' E 030°36'0 0.0
2017-Oct-07 13:00N 36°50' E 030°36'0 0.0
2017-Oct-07 12:30N 36°50' E 030°36'0 0.0
2017-Oct-07 12:00N 36°50' E 030°36'0 0.0
2017-Oct-07 11:30N 36°50' E 030°36'0 0.0
2017-Oct-07 11:00N 36°50' E 030°36'0 0.0
2017-Oct-07 10:30N 36°50' E 030°36'0 0.0
2017-Oct-07 10:00N 36°50' E 030°36'0 0.0
2017-Oct-07 09:30N 36°50' E 030°36'0 0.0
2017-Oct-07 09:00N 36°50' E 030°36'0 0.0
2017-Oct-07 08:30N 36°50' E 030°36'0 0.0
2017-Oct-07 08:01N 36°50' E 030°36'0 0.0
2017-Oct-07 07:30N 36°50' E 030°36'0 0.0
2017-Oct-07 07:00N 36°50' E 030°36'0 0.0
2017-Oct-07 06:30N 36°50' E 030°36'0 0.0
2017-Oct-07 06:00N 36°50' E 030°36'0 0.0
2017-Oct-07 05:30N 36°50' E 030°36'0 0.0
2017-Oct-07 05:00N 36°50' E 030°36'0 0.0
2017-Oct-07 04:30N 36°50' E 030°36'0 0.0
2017-Oct-07 04:00N 36°50' E 030°36'0 0.0
2017-Oct-07 03:30N 36°50' E 030°36'0 0.0
2017-Oct-07 03:00N 36°50' E 030°36'0 0.0
2017-Oct-07 02:30N 36°50' E 030°36'0 0.0
2017-Oct-07 02:00N 36°50' E 030°36'0 0.0
2017-Oct-07 01:30N 36°50' E 030°36'0 0.0
2017-Oct-07 01:00N 36°50' E 030°36'0 0.0
2017-Oct-07 00:30N 36°50' E 030°36'0 0.0
2017-Oct-07 00:00N 36°50' E 030°36'0 0.0
2017-Oct-06 23:30N 36°50' E 030°36'0 0.0
2017-Oct-06 23:00N 36°50' E 030°36'0 0.0
2017-Oct-06 22:30N 36°50' E 030°36'0 0.0
2017-Oct-06 22:00N 36°50' E 030°36'0 0.0
2017-Oct-06 21:30N 36°50' E 030°36'0 0.0
2017-Oct-06 21:00N 36°50' E 030°36'0 0.0
2017-Oct-06 20:30N 36°50' E 030°36'0 0.0
2017-Oct-06 20:00N 36°50' E 030°36'0 0.0
2017-Oct-06 19:30N 36°50' E 030°36'0 0.0
2017-Oct-06 19:00N 36°50' E 030°36'0 0.0
2017-Oct-06 18:30N 36°50' E 030°36'0 0.0
2017-Oct-06 18:00N 36°50' E 030°36'0 0.0
2017-Oct-06 17:30N 36°50' E 030°36'0 0.0
2017-Oct-06 17:00N 36°50' E 030°36'0 0.0
2017-Oct-06 16:30N 36°50' E 030°36'0 0.0
2017-Oct-06 16:00N 36°50' E 030°36'0 0.0
2017-Oct-06 15:30N 36°50' E 030°36'0 0.0
2017-Oct-06 15:00N 36°50' E 030°36'0 0.0
2017-Oct-06 14:30N 36°50' E 030°36'0 0.0
2017-Oct-06 14:00N 36°50' E 030°36'0 0.0
2017-Oct-06 13:30N 36°50' E 030°36'0 0.0
2017-Oct-06 13:00N 36°50' E 030°36'0 0.0
2017-Oct-06 12:30N 36°50' E 030°36'0 0.0
2017-Oct-06 12:00N 36°50' E 030°36'0 0.9
2017-Oct-06 11:31N 36°50' E 030°37'2 3.7
2017-Oct-06 11:00N 36°49' E 030°38'0 0.2
2017-Oct-06 10:31N 36°49' E 030°38'2 3.7
2017-Oct-06 10:00N 36°50' E 030°36'0 0.0
2017-Oct-06 09:30N 36°50' E 030°36'0 0.1
2017-Oct-06 09:00N 36°50' E 030°36'1 1.1
2017-Oct-06 08:30N 36°50' E 030°36'0 0.0
2017-Oct-06 08:01N 36°50' E 030°36'0 0.0
2017-Oct-06 07:30N 36°50' E 030°36'0 0.0
2017-Oct-06 07:00N 36°50' E 030°36'0 0.0
2017-Oct-06 06:30N 36°50' E 030°36'0 0.0
2017-Oct-06 06:00N 36°50' E 030°36'0 0.0
2017-Oct-06 05:31N 36°50' E 030°36'0 0.0
2017-Oct-06 05:00N 36°50' E 030°36'0 0.0
2017-Oct-06 04:30N 36°50' E 030°36'0 0.0
2017-Oct-06 04:00N 36°50' E 030°36'0 0.0
2017-Oct-06 03:30N 36°50' E 030°36'0 0.0
2017-Oct-06 03:00N 36°50' E 030°36'0 0.0
2017-Oct-06 02:30N 36°50' E 030°36'0 0.0
2017-Oct-06 02:01N 36°50' E 030°36'0 0.0
2017-Oct-06 01:30N 36°50' E 030°36'0 0.0
2017-Oct-06 01:00N 36°50' E 030°36'0 0.0
2017-Oct-06 00:30N 36°50' E 030°36'0 0.0
2017-Oct-06 00:01N 36°50' E 030°36'0 0.0
2017-Oct-05 23:30N 36°50' E 030°36'0 0.0
2017-Oct-05 23:00N 36°50' E 030°36'0 0.0
2017-Oct-05 22:30N 36°50' E 030°36'0 0.0
2017-Oct-05 22:00N 36°50' E 030°36'0 0.0
2017-Oct-05 21:30N 36°50' E 030°36'0 0.0
2017-Oct-05 21:00N 36°50' E 030°36'0 0.0
2017-Oct-05 20:30N 36°50' E 030°36'0 0.0
2017-Oct-05 20:00N 36°50' E 030°36'0 0.0
2017-Oct-05 19:30N 36°50' E 030°36'0 0.0
2017-Oct-05 19:00N 36°50' E 030°36'0 0.0
2017-Oct-05 18:30N 36°50' E 030°36'0 0.0
2017-Oct-05 18:00N 36°50' E 030°36'0 0.0
2017-Oct-05 17:30N 36°50' E 030°36'0 0.0
2017-Oct-05 17:00N 36°50' E 030°36'0 0.0
2017-Oct-05 15:30N 36°50' E 030°36'0 0.0
2017-Oct-05 15:00N 36°50' E 030°36'0 0.0
2017-Oct-05 14:30N 36°50' E 030°36'0 0.0
2017-Oct-05 14:00N 36°50' E 030°36'0 0.0
2017-Oct-05 13:30N 36°50' E 030°36'0 0.0
2017-Oct-05 13:00N 36°50' E 030°36'0 0.0
2017-Oct-05 12:30N 36°50' E 030°36'0 0.5
2017-Oct-05 12:00N 36°50' E 030°37'1019.4
2017-Oct-05 11:31N 36°40' E 030°37'510.3
2017-Oct-05 11:00N 36°35' E 030°36'2 3.2
2017-Oct-05 10:30N 36°36' E 030°34'0 0.0
2017-Oct-05 10:00N 36°36' E 030°34'3 6.0
2017-Oct-05 09:31N 36°39' E 030°36'1020.5
2017-Oct-05 09:00N 36°49' E 030°37'1 1.7
2017-Oct-05 08:31N 36°50' E 030°36'0 0.5
2017-Oct-05 08:00N 36°50' E 030°37'0 0.8
2017-Oct-05 07:30N 36°50' E 030°36'0 0.0
2017-Oct-05 07:00N 36°50' E 030°36'0 0.0
2017-Oct-05 06:30N 36°50' E 030°36'0 0.0
2017-Oct-05 06:00N 36°50' E 030°36'0 0.0
2017-Oct-05 05:30N 36°50' E 030°36'0 0.0
2017-Oct-05 05:00N 36°50' E 030°36'0 0.0
2017-Oct-05 04:30N 36°50' E 030°36'0 0.0
2017-Oct-05 04:00N 36°50' E 030°36'0 0.0
2017-Oct-05 03:30N 36°50' E 030°36'0 0.0
2017-Oct-05 03:00N 36°50' E 030°36'0 0.0
2017-Oct-05 02:30N 36°50' E 030°36'0 0.0
2017-Oct-05 02:00N 36°50' E 030°36'0 0.0
2017-Oct-05 01:30N 36°50' E 030°36'0 0.0
2017-Oct-05 01:00N 36°50' E 030°36'0 0.0
2017-Oct-05 00:30N 36°50' E 030°36'0 0.0
2017-Oct-05 00:00N 36°50' E 030°36'0 0.0
2017-Oct-04 23:30N 36°50' E 030°36'0 0.0
2017-Oct-04 23:00N 36°50' E 030°36'0 0.0
2017-Oct-04 22:30N 36°50' E 030°36'0 0.0
2017-Oct-04 22:00N 36°50' E 030°36'0 0.0
2017-Oct-04 21:30N 36°50' E 030°36'0 0.0
2017-Oct-04 21:00N 36°50' E 030°36'0 0.0
2017-Oct-04 20:30N 36°50' E 030°36'0 0.0
2017-Oct-04 20:00N 36°50' E 030°36'0 0.0
2017-Oct-04 19:30N 36°50' E 030°36'0 0.0
2017-Oct-04 19:00N 36°50' E 030°36'0 0.0
2017-Oct-04 18:30N 36°50' E 030°36'0 0.0
2017-Oct-04 18:00N 36°50' E 030°36'0 0.0
2017-Oct-04 17:30N 36°50' E 030°36'0 0.0
2017-Oct-04 17:00N 36°50' E 030°36'0 0.0
2017-Oct-04 16:30N 36°50' E 030°36'0 0.0
2017-Oct-04 16:00N 36°50' E 030°36'0 0.0
2017-Oct-04 15:30N 36°50' E 030°36'0 0.0
2017-Oct-04 15:00N 36°50' E 030°36'0 0.0
2017-Oct-04 14:30N 36°50' E 030°36'0 0.0
2017-Oct-04 14:00N 36°50' E 030°36'0 0.0
2017-Oct-04 13:30N 36°50' E 030°36'0 0.0
2017-Oct-04 13:00N 36°50' E 030°36'0 0.0
2017-Oct-04 12:30N 36°50' E 030°36'1 2.4
2017-Oct-04 12:00N 36°49' E 030°37'1 1.8
2017-Oct-04 11:31N 36°50' E 030°37'1 2.0
2017-Oct-04 11:00N 36°50' E 030°36'0 0.2
2017-Oct-04 10:30N 36°50' E 030°36'0 0.1
2017-Oct-04 10:00N 36°50' E 030°36'0 0.0
2017-Oct-04 09:30N 36°50' E 030°36'0 0.0
2017-Oct-04 09:00N 36°50' E 030°36'0 0.0
2017-Oct-04 08:30N 36°50' E 030°36'0 0.0
2017-Oct-04 08:00N 36°50' E 030°36'0 0.0
2017-Oct-04 07:30N 36°50' E 030°36'0 0.0
2017-Oct-04 07:00N 36°50' E 030°36'0 0.0
2017-Oct-04 06:30N 36°50' E 030°36'0 0.0
2017-Oct-04 06:00N 36°50' E 030°36'0 0.0
2017-Oct-04 05:30N 36°50' E 030°36'0 0.0
2017-Oct-04 05:00N 36°50' E 030°36'0 0.0
2017-Oct-04 04:30N 36°50' E 030°36'0 0.0
2017-Oct-04 04:00N 36°50' E 030°36'0 0.0
2017-Oct-04 03:30N 36°50' E 030°36'0 0.0
2017-Oct-04 03:00N 36°50' E 030°36'0 0.0
2017-Oct-04 02:30N 36°50' E 030°36'0 0.0
2017-Oct-04 02:00N 36°50' E 030°36'0 0.0
2017-Oct-04 01:30N 36°50' E 030°36'0 0.0
2017-Oct-04 01:00N 36°50' E 030°36'0 0.0
2017-Oct-04 00:30N 36°50' E 030°36'0 0.0
2017-Oct-04 00:00N 36°50' E 030°36'0 0.0
2017-Oct-03 23:30N 36°50' E 030°36'0 0.0
2017-Oct-03 23:00N 36°50' E 030°36'0 0.0
2017-Oct-03 22:30N 36°50' E 030°36'0 0.0
2017-Oct-03 22:00N 36°50' E 030°36'0 0.0
2017-Oct-03 21:30N 36°50' E 030°36'0 0.0
2017-Oct-03 21:00N 36°50' E 030°36'0 0.0
2017-Oct-03 20:30N 36°50' E 030°36'0 0.0
2017-Oct-03 20:00N 36°50' E 030°36'0 0.0
2017-Oct-03 19:30N 36°50' E 030°36'0 0.0
2017-Oct-03 19:00N 36°50' E 030°36'0 0.0
2017-Oct-03 18:30N 36°50' E 030°36'0 0.0
2017-Oct-03 18:00N 36°50' E 030°36'0 0.0
2017-Oct-03 17:30N 36°50' E 030°36'0 0.0
2017-Oct-03 17:00N 36°50' E 030°36'0 0.0
2017-Oct-03 16:30N 36°50' E 030°36'0 0.0
2017-Oct-03 16:00N 36°50' E 030°36'0 0.0
2017-Oct-03 15:30N 36°50' E 030°36'0 0.0
2017-Oct-03 15:00N 36°50' E 030°36'0 0.0
2017-Oct-03 14:00N 36°50' E 030°36'0 0.0
2017-Oct-03 13:30N 36°50' E 030°36'0 0.0
2017-Oct-03 13:00N 36°50' E 030°36'0 0.0
2017-Oct-03 12:30N 36°50' E 030°36'0 0.0
2017-Oct-03 12:00N 36°50' E 030°36'3 6.1
2017-Oct-03 11:31N 36°50' E 030°40'611.3
2017-Oct-03 11:00N 36°51' E 030°47'714.3
2017-Oct-03 10:31N 36°50' E 030°38'2 3.3
2017-Oct-03 10:00N 36°50' E 030°36'0 0.0
2017-Oct-03 09:30N 36°50' E 030°36'0 0.0
2017-Oct-03 09:00N 36°50' E 030°36'0 0.0
2017-Oct-03 08:30N 36°50' E 030°36'0 0.0
2017-Oct-03 08:00N 36°50' E 030°36'0 0.0
2017-Oct-03 07:30N 36°50' E 030°36'0 0.0
2017-Oct-03 07:00N 36°50' E 030°36'0 0.0
2017-Oct-03 06:30N 36°50' E 030°36'0 0.0
2017-Oct-03 06:00N 36°50' E 030°36'0 0.0
2017-Oct-03 05:30N 36°50' E 030°36'0 0.0
2017-Oct-03 05:00N 36°50' E 030°36'0 0.0
2017-Oct-03 04:30N 36°50' E 030°36'0 0.0
2017-Oct-03 04:00N 36°50' E 030°36'0 0.0
2017-Oct-03 03:30N 36°50' E 030°36'0 0.0
2017-Oct-03 03:00N 36°50' E 030°36'0 0.0
2017-Oct-03 02:30N 36°50' E 030°36'0 0.0
2017-Oct-03 02:00N 36°50' E 030°36'0 0.0
2017-Oct-03 01:30N 36°50' E 030°36'0 0.0
2017-Oct-03 01:00N 36°50' E 030°36'0 0.0
2017-Oct-03 00:30N 36°50' E 030°36'0 0.0
2017-Oct-03 00:00N 36°50' E 030°36'0 0.0
2017-Oct-02 23:30N 36°50' E 030°36'0 0.0
2017-Oct-02 23:00N 36°50' E 030°36'0 0.0
2017-Oct-02 22:30N 36°50' E 030°36'0 0.0
2017-Oct-02 22:00N 36°50' E 030°36'0 0.0
2017-Oct-02 21:30N 36°50' E 030°36'0 0.0
2017-Oct-02 21:00N 36°50' E 030°36'0 0.0
2017-Oct-02 20:30N 36°50' E 030°36'0 0.0
2017-Oct-02 20:00N 36°50' E 030°36'0 0.0
2017-Oct-02 19:30N 36°50' E 030°36'0 0.0
2017-Oct-02 19:00N 36°50' E 030°36'0 0.0
2017-Oct-02 18:30N 36°50' E 030°36'0 0.0
2017-Oct-02 18:00N 36°50' E 030°36'0 0.0
2017-Oct-02 17:30N 36°50' E 030°36'0 0.0
2017-Oct-02 17:00N 36°50' E 030°36'0 0.0
2017-Oct-02 16:30N 36°50' E 030°36'0 0.0
2017-Oct-02 16:00N 36°50' E 030°36'0 0.0
2017-Oct-02 15:30N 36°50' E 030°36'0 0.0
2017-Oct-02 15:00N 36°50' E 030°36'0 0.0
2017-Oct-02 14:30N 36°50' E 030°36'0 0.0
2017-Oct-02 14:00N 36°50' E 030°36'0 0.0
2017-Oct-02 13:30N 36°50' E 030°36'0 0.0
2017-Oct-02 13:00N 36°50' E 030°36'0 0.0
2017-Oct-02 12:30N 36°50' E 030°36'0 0.0
2017-Oct-02 12:00N 36°50' E 030°36'0 0.0
2017-Oct-02 11:30N 36°50' E 030°36'0 0.0
2017-Oct-02 11:00N 36°50' E 030°36'0 0.0
2017-Oct-02 10:30N 36°50' E 030°36'0 0.0
2017-Oct-02 10:00N 36°50' E 030°36'0 0.0
2017-Oct-02 09:30N 36°50' E 030°36'0 0.0
2017-Oct-02 09:00N 36°50' E 030°36'0 0.0
2017-Oct-02 08:30N 36°50' E 030°36'0 0.0
2017-Oct-02 08:00N 36°50' E 030°36'0 0.0
2017-Oct-02 07:30N 36°50' E 030°36'0 0.0
2017-Oct-02 07:00N 36°50' E 030°36'0 0.0
2017-Oct-02 06:30N 36°50' E 030°36'0 0.0
2017-Oct-02 06:00N 36°50' E 030°36'0 0.0
2017-Oct-02 05:30N 36°50' E 030°36'0 0.0
2017-Oct-02 05:00N 36°50' E 030°36'0 0.0
2017-Oct-02 04:30N 36°50' E 030°36'0 0.0
2017-Oct-02 04:00N 36°50' E 030°36'0 0.0
2017-Oct-02 03:30N 36°50' E 030°36'0 0.0
2017-Oct-02 03:00N 36°50' E 030°36'0 0.0
2017-Oct-02 02:30N 36°50' E 030°36'0 0.0
2017-Oct-02 02:00N 36°50' E 030°36'0 0.0
2017-Oct-02 01:30N 36°50' E 030°36'0 0.0
2017-Oct-02 01:00N 36°50' E 030°36'0 0.0
2017-Oct-02 00:30N 36°50' E 030°36'0 0.0
2017-Oct-02 00:00N 36°50' E 030°36'0 0.0
2017-Oct-01 23:30N 36°50' E 030°36'0 0.0
2017-Oct-01 23:00N 36°50' E 030°36'0 0.0
2017-Oct-01 22:30N 36°50' E 030°36'0 0.0
2017-Oct-01 22:00N 36°50' E 030°36'0 0.0
2017-Oct-01 21:30N 36°50' E 030°36'0 0.0
2017-Oct-01 21:00N 36°50' E 030°36'0 0.0
2017-Oct-01 20:30N 36°50' E 030°36'0 0.0
2017-Oct-01 20:00N 36°50' E 030°36'0 0.0
2017-Oct-01 19:30N 36°50' E 030°36'0 0.0
2017-Oct-01 19:00N 36°50' E 030°36'0 0.0
2017-Oct-01 18:30N 36°50' E 030°36'0 0.0
2017-Oct-01 18:00N 36°50' E 030°36'0 0.0
2017-Oct-01 17:30N 36°50' E 030°36'0 0.0
2017-Oct-01 17:00N 36°50' E 030°36'0 0.0
2017-Oct-01 16:30N 36°50' E 030°36'0 0.0
2017-Oct-01 16:00N 36°50' E 030°36'0 0.0
2017-Oct-01 15:30N 36°50' E 030°36'0 0.0
2017-Oct-01 15:00N 36°50' E 030°36'0 0.0
2017-Oct-01 14:30N 36°50' E 030°36'0 0.0
2017-Oct-01 14:00N 36°50' E 030°36'0 0.0
2017-Oct-01 13:30N 36°50' E 030°36'0 0.0
2017-Oct-01 13:00N 36°50' E 030°36'0 0.0
2017-Oct-01 12:30N 36°50' E 030°36'0 0.0
2017-Oct-01 12:00N 36°50' E 030°36'0 0.0
2017-Oct-01 11:30N 36°50' E 030°36'0 0.0
2017-Oct-01 11:00N 36°50' E 030°36'0 0.0
2017-Oct-01 10:30N 36°50' E 030°36'0 0.0
2017-Oct-01 10:00N 36°50' E 030°36'0 0.0
2017-Oct-01 09:30N 36°50' E 030°36'0 0.0
2017-Oct-01 09:00N 36°50' E 030°36'0 0.0
2017-Oct-01 08:30N 36°50' E 030°36'0 0.0
2017-Oct-01 08:00N 36°50' E 030°36'0 0.0
2017-Oct-01 07:30N 36°50' E 030°36'0 0.0
2017-Oct-01 07:00N 36°50' E 030°36'0 0.0
2017-Oct-01 06:30N 36°50' E 030°36'0 0.0
2017-Oct-01 06:00N 36°50' E 030°36'0 0.0
2017-Oct-01 05:30N 36°50' E 030°36'0 0.0
2017-Oct-01 05:00N 36°50' E 030°36'0 0.0
2017-Oct-01 04:30N 36°50' E 030°36'0 0.0
2017-Oct-01 04:00N 36°50' E 030°36'0 0.0
2017-Oct-01 03:30N 36°50' E 030°36'0 0.0
2017-Oct-01 03:00N 36°50' E 030°36'  
Track history (hours):
 
Tides and Currents Weather Stations Pressure Air Temp Water Temp Dewpoint Dewpoint Depression Visibility Wind Speed Wind Dir Waves Ship Positions

Tcsg 904

Last reported at 2017-Oct-11 00:00 UTC. Time now 2017-Nov-19 20:02 UTC.
Position N 36°50' E 030°36'.
Warning: this ship's position is 39 days out of date.

Length 19 m.

Type: SAR. MMSI: 271030171.

Date/timePositionNaut miles runAvg speedWind from/ knotsBaromVisibWave heightAir tempDewpointWater temp
2017-Oct-11 00:00N 36°50' E 030°36'0 0.0
2017-Oct-10 23:30N 36°50' E 030°36'0 0.0
2017-Oct-10 23:00N 36°50' E 030°36'0 0.0
2017-Oct-10 22:30N 36°50' E 030°36'0 0.0
2017-Oct-10 22:00N 36°50' E 030°36'0 0.0
2017-Oct-10 21:30N 36°50' E 030°36'0 0.0
2017-Oct-10 21:00N 36°50' E 030°36'0 0.0
2017-Oct-10 20:30N 36°50' E 030°36'0 0.0
2017-Oct-10 20:00N 36°50' E 030°36'0 0.0
2017-Oct-10 19:30N 36°50' E 030°36'0 0.0
2017-Oct-10 19:00N 36°50' E 030°36'0 0.0
2017-Oct-10 18:30N 36°50' E 030°36'0 0.0
2017-Oct-10 18:00N 36°50' E 030°36'0 0.0
2017-Oct-10 17:30N 36°50' E 030°36'0 0.0
2017-Oct-10 17:00N 36°50' E 030°36'0 0.0
2017-Oct-10 16:30N 36°50' E 030°36'0 0.0
2017-Oct-10 16:00N 36°50' E 030°36'0 0.0
2017-Oct-10 15:30N 36°50' E 030°36'0 0.0
2017-Oct-10 15:00N 36°50' E 030°36'0 0.0
2017-Oct-10 14:00N 36°50' E 030°36'0 0.0
2017-Oct-10 13:30N 36°50' E 030°36'0 0.0
2017-Oct-10 13:00N 36°50' E 030°36'0 0.0
2017-Oct-10 12:30N 36°50' E 030°36'917.7
2017-Oct-10 12:01N 36°42' E 030°37'5 9.8
2017-Oct-10 11:30N 36°37' E 030°36'1 2.8
2017-Oct-10 11:00N 36°36' E 030°34'0 0.0
2017-Oct-10 10:30N 36°36' E 030°34'1223.7
2017-Oct-10 10:00N 36°48' E 030°37'1 2.4
2017-Oct-10 09:31N 36°49' E 030°37'1 2.3
2017-Oct-10 09:00N 36°50' E 030°37'0 1.0
2017-Oct-10 08:31N 36°50' E 030°36'0 0.0
2017-Oct-10 08:01N 36°50' E 030°36'0 0.0
2017-Oct-10 07:31N 36°50' E 030°36'0 0.0
2017-Oct-10 07:01N 36°50' E 030°36'0 0.0
2017-Oct-10 06:31N 36°50' E 030°36'0 0.0
2017-Oct-10 06:01N 36°50' E 030°36'0 0.0
2017-Oct-10 05:31N 36°50' E 030°36'0 0.0
2017-Oct-10 05:01N 36°50' E 030°36'0 0.0
2017-Oct-10 04:31N 36°50' E 030°36'0 0.0
2017-Oct-10 04:00N 36°50' E 030°36'0 0.0
2017-Oct-10 03:31N 36°50' E 030°36'0 0.0
2017-Oct-10 03:00N 36°50' E 030°36'0 0.0
2017-Oct-10 02:31N 36°50' E 030°36'0 0.0
2017-Oct-10 02:01N 36°50' E 030°36'0 0.0
2017-Oct-10 01:31N 36°50' E 030°36'0 0.0
2017-Oct-10 01:01N 36°50' E 030°36'0 0.0
2017-Oct-10 00:31N 36°50' E 030°36'0 0.0
2017-Oct-10 00:01N 36°50' E 030°36'0 0.0
2017-Oct-09 23:31N 36°50' E 030°36'0 0.0
2017-Oct-09 23:01N 36°50' E 030°36'0 0.0
2017-Oct-09 22:31N 36°50' E 030°36'0 0.0
2017-Oct-09 22:01N 36°50' E 030°36'0 0.0
2017-Oct-09 21:31N 36°50' E 030°36'0 0.0
2017-Oct-09 21:01N 36°50' E 030°36'0 0.0
2017-Oct-09 20:31N 36°50' E 030°36'0 0.0
2017-Oct-09 20:00N 36°50' E 030°36'0 0.0
2017-Oct-09 19:31N 36°50' E 030°36'0 0.0
2017-Oct-09 19:01N 36°50' E 030°36'0 0.0
2017-Oct-09 18:31N 36°50' E 030°36'0 0.0
2017-Oct-09 18:01N 36°50' E 030°36'0 0.0
2017-Oct-09 17:31N 36°50' E 030°36'0 0.0
2017-Oct-09 17:01N 36°50' E 030°36'0 0.0
2017-Oct-09 16:30N 36°50' E 030°36'0 0.0
2017-Oct-09 16:00N 36°50' E 030°36'0 0.0
2017-Oct-09 15:31N 36°50' E 030°36'0 0.0
2017-Oct-09 15:01N 36°50' E 030°36'0 0.0
2017-Oct-09 14:31N 36°50' E 030°36'0 0.0
2017-Oct-09 14:01N 36°50' E 030°36'0 0.0
2017-Oct-09 13:31N 36°50' E 030°36'0 0.0
2017-Oct-09 13:01N 36°50' E 030°36'0 0.0
2017-Oct-09 12:31N 36°50' E 030°36'0 0.0
2017-Oct-09 12:01N 36°50' E 030°36'3 6.3
2017-Oct-09 11:31N 36°47' E 030°36'1 1.3
2017-Oct-09 11:01N 36°48' E 030°36'1 1.5
2017-Oct-09 10:31N 36°48' E 030°36'2 3.8
2017-Oct-09 10:00N 36°50' E 030°36'0 0.0
2017-Oct-09 09:30N 36°50' E 030°36'0 0.0
2017-Oct-09 09:00N 36°50' E 030°36'0 0.0
2017-Oct-09 08:30N 36°50' E 030°36'0 0.0
2017-Oct-09 08:00N 36°50' E 030°36'0 0.0
2017-Oct-09 07:30N 36°50' E 030°36'0 0.0
2017-Oct-09 07:00N 36°50' E 030°36'0 0.0
2017-Oct-09 06:30N 36°50' E 030°36'0 0.0
2017-Oct-09 06:00N 36°50' E 030°36'0 0.0
2017-Oct-09 05:30N 36°50' E 030°36'0 0.0
2017-Oct-09 05:00N 36°50' E 030°36'0 0.0
2017-Oct-09 04:30N 36°50' E 030°36'0 0.0
2017-Oct-09 04:00N 36°50' E 030°36'0 0.0
2017-Oct-09 03:30N 36°50' E 030°36'0 0.0
2017-Oct-09 03:00N 36°50' E 030°36'0 0.0
2017-Oct-09 02:30N 36°50' E 030°36'0 0.0
2017-Oct-09 02:00N 36°50' E 030°36'0 0.0
2017-Oct-09 01:30N 36°50' E 030°36'0 0.0
2017-Oct-09 01:00N 36°50' E 030°36'0 0.0
2017-Oct-09 00:30N 36°50' E 030°36'0 0.0
2017-Oct-09 00:01N 36°50' E 030°36'0 0.0
2017-Oct-08 23:30N 36°50' E 030°36'0 0.0
2017-Oct-08 23:00N 36°50' E 030°36'0 0.0
2017-Oct-08 22:30N 36°50' E 030°36'0 0.0
2017-Oct-08 22:00N 36°50' E 030°36'0 0.0
2017-Oct-08 21:30N 36°50' E 030°36'0 0.0
2017-Oct-08 21:00N 36°50' E 030°36'0 0.0
2017-Oct-08 20:30N 36°50' E 030°36'0 0.0
2017-Oct-08 20:00N 36°50' E 030°36'0 0.0
2017-Oct-08 19:30N 36°50' E 030°36'0 0.0
2017-Oct-08 19:00N 36°50' E 030°36'0 0.0
2017-Oct-08 18:30N 36°50' E 030°36'0 0.0
2017-Oct-08 18:00N 36°50' E 030°36'0 0.0
2017-Oct-08 17:30N 36°50' E 030°36'0 0.0
2017-Oct-08 17:00N 36°50' E 030°36'0 0.0
2017-Oct-08 16:30N 36°50' E 030°36'0 0.0
2017-Oct-08 16:00N 36°50' E 030°36'0 0.0
2017-Oct-08 15:30N 36°50' E 030°36'0 0.0
2017-Oct-08 15:00N 36°50' E 030°36'0 0.0
2017-Oct-08 14:30N 36°50' E 030°36'0 0.0
2017-Oct-08 14:00N 36°50' E 030°36'0 0.0
2017-Oct-08 13:30N 36°50' E 030°36'0 0.0
2017-Oct-08 13:00N 36°50' E 030°36'0 0.0
2017-Oct-08 12:30N 36°50' E 030°36'0 0.0
2017-Oct-08 12:00N 36°50' E 030°36'0 0.0
2017-Oct-08 11:30N 36°50' E 030°36'0 0.0
2017-Oct-08 11:00N 36°50' E 030°36'0 0.0
2017-Oct-08 10:30N 36°50' E 030°36'0 0.0
2017-Oct-08 10:00N 36°50' E 030°36'0 0.0
2017-Oct-08 09:30N 36°50' E 030°36'0 0.0
2017-Oct-08 09:01N 36°50' E 030°36'0 0.0
2017-Oct-08 08:30N 36°50' E 030°36'0 0.0
2017-Oct-08 08:01N 36°50' E 030°36'0 0.0
2017-Oct-08 07:30N 36°50' E 030°36'0 0.0
2017-Oct-08 07:00N 36°50' E 030°36'0 0.0
2017-Oct-08 06:30N 36°50' E 030°36'0 0.0
2017-Oct-08 06:00N 36°50' E 030°36'0 0.0
2017-Oct-08 05:30N 36°50' E 030°36'0 0.0
2017-Oct-08 05:00N 36°50' E 030°36'0 0.0
2017-Oct-08 04:30N 36°50' E 030°36'0 0.0
2017-Oct-08 04:00N 36°50' E 030°36'0 0.0
2017-Oct-08 03:30N 36°50' E 030°36'0 0.0
2017-Oct-08 03:00N 36°50' E 030°36'0 0.0
2017-Oct-08 02:30N 36°50' E 030°36'0 0.0
2017-Oct-08 02:00N 36°50' E 030°36'0 0.0
2017-Oct-08 01:30N 36°50' E 030°36'0 0.0
2017-Oct-08 01:00N 36°50' E 030°36'0 0.0
2017-Oct-08 00:30N 36°50' E 030°36'0 0.0
2017-Oct-08 00:00N 36°50' E 030°36'0 0.0
2017-Oct-07 23:30N 36°50' E 030°36'0 0.0
2017-Oct-07 23:00N 36°50' E 030°36'0 0.0
2017-Oct-07 22:30N 36°50' E 030°36'0 0.0
2017-Oct-07 22:00N 36°50' E 030°36'0 0.0
2017-Oct-07 21:30N 36°50' E 030°36'0 0.0
2017-Oct-07 21:00N 36°50' E 030°36'0 0.0
2017-Oct-07 20:30N 36°50' E 030°36'0 0.0
2017-Oct-07 20:00N 36°50' E 030°36'0 0.0
2017-Oct-07 19:30N 36°50' E 030°36'0 0.0
2017-Oct-07 19:00N 36°50' E 030°36'0 0.0
2017-Oct-07 18:30N 36°50' E 030°36'0 0.0
2017-Oct-07 18:00N 36°50' E 030°36'0 0.0
2017-Oct-07 17:30N 36°50' E 030°36'0 0.0
2017-Oct-07 17:00N 36°50' E 030°36'0 0.0
2017-Oct-07 16:30N 36°50' E 030°36'0 0.0
2017-Oct-07 16:00N 36°50' E 030°36'0 0.0
2017-Oct-07 15:30N 36°50' E 030°36'0 0.0
2017-Oct-07 15:00N 36°50' E 030°36'0 0.0
2017-Oct-07 14:30N 36°50' E 030°36'0 0.0
2017-Oct-07 14:00N 36°50' E 030°36'0 0.0
2017-Oct-07 13:30N 36°50' E 030°36'0 0.0
2017-Oct-07 13:00N 36°50' E 030°36'0 0.0
2017-Oct-07 12:30N 36°50' E 030°36'0 0.0
2017-Oct-07 12:00N 36°50' E 030°36'0 0.0
2017-Oct-07 11:30N 36°50' E 030°36'0 0.0
2017-Oct-07 11:00N 36°50' E 030°36'0 0.0
2017-Oct-07 10:30N 36°50' E 030°36'0 0.0
2017-Oct-07 10:00N 36°50' E 030°36'0 0.0
2017-Oct-07 09:30N 36°50' E 030°36'0 0.0
2017-Oct-07 09:00N 36°50' E 030°36'0 0.0
2017-Oct-07 08:30N 36°50' E 030°36'0 0.0
2017-Oct-07 08:01N 36°50' E 030°36'0 0.0
2017-Oct-07 07:30N 36°50' E 030°36'0 0.0
2017-Oct-07 07:00N 36°50' E 030°36'0 0.0
2017-Oct-07 06:30N 36°50' E 030°36'0 0.0
2017-Oct-07 06:00N 36°50' E 030°36'0 0.0
2017-Oct-07 05:30N 36°50' E 030°36'0 0.0
2017-Oct-07 05:00N 36°50' E 030°36'0 0.0
2017-Oct-07 04:30N 36°50' E 030°36'0 0.0
2017-Oct-07 04:00N 36°50' E 030°36'0 0.0
2017-Oct-07 03:30N 36°50' E 030°36'0 0.0
2017-Oct-07 03:00N 36°50' E 030°36'0 0.0
2017-Oct-07 02:30N 36°50' E 030°36'0 0.0
2017-Oct-07 02:00N 36°50' E 030°36'0 0.0
2017-Oct-07 01:30N 36°50' E 030°36'0 0.0
2017-Oct-07 01:00N 36°50' E 030°36'0 0.0
2017-Oct-07 00:30N 36°50' E 030°36'0 0.0
2017-Oct-07 00:00N 36°50' E 030°36'0 0.0
2017-Oct-06 23:30N 36°50' E 030°36'0 0.0
2017-Oct-06 23:00N 36°50' E 030°36'0 0.0
2017-Oct-06 22:30N 36°50' E 030°36'0 0.0
2017-Oct-06 22:00N 36°50' E 030°36'0 0.0
2017-Oct-06 21:30N 36°50' E 030°36'0 0.0
2017-Oct-06 21:00N 36°50' E 030°36'0 0.0
2017-Oct-06 20:30N 36°50' E 030°36'0 0.0
2017-Oct-06 20:00N 36°50' E 030°36'0 0.0
2017-Oct-06 19:30N 36°50' E 030°36'0 0.0
2017-Oct-06 19:00N 36°50' E 030°36'0 0.0
2017-Oct-06 18:30N 36°50' E 030°36'0 0.0
2017-Oct-06 18:00N 36°50' E 030°36'0 0.0
2017-Oct-06 17:30N 36°50' E 030°36'0 0.0
2017-Oct-06 17:00N 36°50' E 030°36'0 0.0
2017-Oct-06 16:30N 36°50' E 030°36'0 0.0
2017-Oct-06 16:00N 36°50' E 030°36'0 0.0
2017-Oct-06 15:30N 36°50' E 030°36'0 0.0
2017-Oct-06 15:00N 36°50' E 030°36'0 0.0
2017-Oct-06 14:30N 36°50' E 030°36'0 0.0
2017-Oct-06 14:00N 36°50' E 030°36'0 0.0
2017-Oct-06 13:30N 36°50' E 030°36'0 0.0
2017-Oct-06 13:00N 36°50' E 030°36'0 0.0
2017-Oct-06 12:30N 36°50' E 030°36'0 0.0
2017-Oct-06 12:00N 36°50' E 030°36'0 0.9
2017-Oct-06 11:31N 36°50' E 030°37'2 3.7
2017-Oct-06 11:00N 36°49' E 030°38'0 0.2
2017-Oct-06 10:31N 36°49' E 030°38'2 3.7
2017-Oct-06 10:00N 36°50' E 030°36'0 0.0
2017-Oct-06 09:30N 36°50' E 030°36'0 0.1
2017-Oct-06 09:00N 36°50' E 030°36'1 1.1
2017-Oct-06 08:30N 36°50' E 030°36'0 0.0
2017-Oct-06 08:01N 36°50' E 030°36'0 0.0
2017-Oct-06 07:30N 36°50' E 030°36'0 0.0
2017-Oct-06 07:00N 36°50' E 030°36'0 0.0
2017-Oct-06 06:30N 36°50' E 030°36'0 0.0
2017-Oct-06 06:00N 36°50' E 030°36'0 0.0
2017-Oct-06 05:31N 36°50' E 030°36'0 0.0
2017-Oct-06 05:00N 36°50' E 030°36'0 0.0
2017-Oct-06 04:30N 36°50' E 030°36'0 0.0
2017-Oct-06 04:00N 36°50' E 030°36'0 0.0
2017-Oct-06 03:30N 36°50' E 030°36'0 0.0
2017-Oct-06 03:00N 36°50' E 030°36'0 0.0
2017-Oct-06 02:30N 36°50' E 030°36'0 0.0
2017-Oct-06 02:01N 36°50' E 030°36'0 0.0
2017-Oct-06 01:30N 36°50' E 030°36'0 0.0
2017-Oct-06 01:00N 36°50' E 030°36'0 0.0
2017-Oct-06 00:30N 36°50' E 030°36'0 0.0
2017-Oct-06 00:01N 36°50' E 030°36'0 0.0
2017-Oct-05 23:30N 36°50' E 030°36'0 0.0
2017-Oct-05 23:00N 36°50' E 030°36'0 0.0
2017-Oct-05 22:30N 36°50' E 030°36'0 0.0
2017-Oct-05 22:00N 36°50' E 030°36'0 0.0
2017-Oct-05 21:30N 36°50' E 030°36'0 0.0
2017-Oct-05 21:00N 36°50' E 030°36'0 0.0
2017-Oct-05 20:30N 36°50' E 030°36'0 0.0
2017-Oct-05 20:00N 36°50' E 030°36'0 0.0
2017-Oct-05 19:30N 36°50' E 030°36'0 0.0
2017-Oct-05 19:00N 36°50' E 030°36'0 0.0
2017-Oct-05 18:30N 36°50' E 030°36'0 0.0
2017-Oct-05 18:00N 36°50' E 030°36'0 0.0
2017-Oct-05 17:30N 36°50' E 030°36'0 0.0
2017-Oct-05 17:00N 36°50' E 030°36'0 0.0
2017-Oct-05 15:30N 36°50' E 030°36'0 0.0
2017-Oct-05 15:00N 36°50' E 030°36'0 0.0
2017-Oct-05 14:30N 36°50' E 030°36'0 0.0
2017-Oct-05 14:00N 36°50' E 030°36'0 0.0
2017-Oct-05 13:30N 36°50' E 030°36'0 0.0
2017-Oct-05 13:00N 36°50' E 030°36'0 0.0
2017-Oct-05 12:30N 36°50' E 030°36'0 0.5
2017-Oct-05 12:00N 36°50' E 030°37'1019.4
2017-Oct-05 11:31N 36°40' E 030°37'510.3
2017-Oct-05 11:00N 36°35' E 030°36'2 3.2
2017-Oct-05 10:30N 36°36' E 030°34'0 0.0
2017-Oct-05 10:00N 36°36' E 030°34'3 6.0
2017-Oct-05 09:31N 36°39' E 030°36'1020.5
2017-Oct-05 09:00N 36°49' E 030°37'1 1.7
2017-Oct-05 08:31N 36°50' E 030°36'0 0.5
2017-Oct-05 08:00N 36°50' E 030°37'0 0.8
2017-Oct-05 07:30N 36°50' E 030°36'0 0.0
2017-Oct-05 07:00N 36°50' E 030°36'0 0.0
2017-Oct-05 06:30N 36°50' E 030°36'0 0.0
2017-Oct-05 06:00N 36°50' E 030°36'0 0.0
2017-Oct-05 05:30N 36°50' E 030°36'0 0.0
2017-Oct-05 05:00N 36°50' E 030°36'0 0.0
2017-Oct-05 04:30N 36°50' E 030°36'0 0.0
2017-Oct-05 04:00N 36°50' E 030°36'0 0.0
2017-Oct-05 03:30N 36°50' E 030°36'0 0.0
2017-Oct-05 03:00N 36°50' E 030°36'0 0.0
2017-Oct-05 02:30N 36°50' E 030°36'0 0.0
2017-Oct-05 02:00N 36°50' E 030°36'0 0.0
2017-Oct-05 01:30N 36°50' E 030°36'0 0.0
2017-Oct-05 01:00N 36°50' E 030°36'0 0.0
2017-Oct-05 00:30N 36°50' E 030°36'0 0.0
2017-Oct-05 00:00N 36°50' E 030°36'0 0.0
2017-Oct-04 23:30N 36°50' E 030°36'0 0.0
2017-Oct-04 23:00N 36°50' E 030°36'0 0.0
2017-Oct-04 22:30N 36°50' E 030°36'0 0.0
2017-Oct-04 22:00N 36°50' E 030°36'0 0.0
2017-Oct-04 21:30N 36°50' E 030°36'0 0.0
2017-Oct-04 21:00N 36°50' E 030°36'0 0.0
2017-Oct-04 20:30N 36°50' E 030°36'0 0.0
2017-Oct-04 20:00N 36°50' E 030°36'0 0.0
2017-Oct-04 19:30N 36°50' E 030°36'0 0.0
2017-Oct-04 19:00N 36°50' E 030°36'0 0.0
2017-Oct-04 18:30N 36°50' E 030°36'0 0.0
2017-Oct-04 18:00N 36°50' E 030°36'0 0.0
2017-Oct-04 17:30N 36°50' E 030°36'0 0.0
2017-Oct-04 17:00N 36°50' E 030°36'0 0.0
2017-Oct-04 16:30N 36°50' E 030°36'0 0.0
2017-Oct-04 16:00N 36°50' E 030°36'0 0.0
2017-Oct-04 15:30N 36°50' E 030°36'0 0.0
2017-Oct-04 15:00N 36°50' E 030°36'0 0.0
2017-Oct-04 14:30N 36°50' E 030°36'0 0.0
2017-Oct-04 14:00N 36°50' E 030°36'0 0.0
2017-Oct-04 13:30N 36°50' E 030°36'0 0.0
2017-Oct-04 13:00N 36°50' E 030°36'0 0.0
2017-Oct-04 12:30N 36°50' E 030°36'1 2.4
2017-Oct-04 12:00N 36°49' E 030°37'1 1.8
2017-Oct-04 11:31N 36°50' E 030°37'1 2.0
2017-Oct-04 11:00N 36°50' E 030°36'0 0.2
2017-Oct-04 10:30N 36°50' E 030°36'0 0.1
2017-Oct-04 10:00N 36°50' E 030°36'0 0.0
2017-Oct-04 09:30N 36°50' E 030°36'0 0.0
2017-Oct-04 09:00N 36°50' E 030°36'0 0.0
2017-Oct-04 08:30N 36°50' E 030°36'0 0.0
2017-Oct-04 08:00N 36°50' E 030°36'0 0.0
2017-Oct-04 07:30N 36°50' E 030°36'0 0.0
2017-Oct-04 07:00N 36°50' E 030°36'0 0.0
2017-Oct-04 06:30N 36°50' E 030°36'0 0.0
2017-Oct-04 06:00N 36°50' E 030°36'0 0.0
2017-Oct-04 05:30N 36°50' E 030°36'0 0.0
2017-Oct-04 05:00N 36°50' E 030°36'0 0.0
2017-Oct-04 04:30N 36°50' E 030°36'0 0.0
2017-Oct-04 04:00N 36°50' E 030°36'0 0.0
2017-Oct-04 03:30N 36°50' E 030°36'0 0.0
2017-Oct-04 03:00N 36°50' E 030°36'0 0.0
2017-Oct-04 02:30N 36°50' E 030°36'0 0.0
2017-Oct-04 02:00N 36°50' E 030°36'0 0.0
2017-Oct-04 01:30N 36°50' E 030°36'0 0.0
2017-Oct-04 01:00N 36°50' E 030°36'0 0.0
2017-Oct-04 00:30N 36°50' E 030°36'0 0.0
2017-Oct-04 00:00N 36°50' E 030°36'0 0.0
2017-Oct-03 23:30N 36°50' E 030°36'0 0.0
2017-Oct-03 23:00N 36°50' E 030°36'0 0.0
2017-Oct-03 22:30N 36°50' E 030°36'0 0.0
2017-Oct-03 22:00N 36°50' E 030°36'0 0.0
2017-Oct-03 21:30N 36°50' E 030°36'0 0.0
2017-Oct-03 21:00N 36°50' E 030°36'0 0.0
2017-Oct-03 20:30N 36°50' E 030°36'0 0.0
2017-Oct-03 20:00N 36°50' E 030°36'0 0.0
2017-Oct-03 19:30N 36°50' E 030°36'0 0.0
2017-Oct-03 19:00N 36°50' E 030°36'0 0.0
2017-Oct-03 18:30N 36°50' E 030°36'0 0.0
2017-Oct-03 18:00N 36°50' E 030°36'0 0.0
2017-Oct-03 17:30N 36°50' E 030°36'0 0.0
2017-Oct-03 17:00N 36°50' E 030°36'0 0.0
2017-Oct-03 16:30N 36°50' E 030°36'0 0.0
2017-Oct-03 16:00N 36°50' E 030°36'0 0.0
2017-Oct-03 15:30N 36°50' E 030°36'0 0.0
2017-Oct-03 15:00N 36°50' E 030°36'0 0.0
2017-Oct-03 14:00N 36°50' E 030°36'0 0.0
2017-Oct-03 13:30N 36°50' E 030°36'0 0.0
2017-Oct-03 13:00N 36°50' E 030°36'0 0.0
2017-Oct-03 12:30N 36°50' E 030°36'0 0.0
2017-Oct-03 12:00N 36°50' E 030°36'3 6.1
2017-Oct-03 11:31N 36°50' E 030°40'611.3
2017-Oct-03 11:00N 36°51' E 030°47'714.3
2017-Oct-03 10:31N 36°50' E 030°38'2 3.3
2017-Oct-03 10:00N 36°50' E 030°36'0 0.0
2017-Oct-03 09:30N 36°50' E 030°36'0 0.0
2017-Oct-03 09:00N 36°50' E 030°36'0 0.0
2017-Oct-03 08:30N 36°50' E 030°36'0 0.0
2017-Oct-03 08:00N 36°50' E 030°36'0 0.0
2017-Oct-03 07:30N 36°50' E 030°36'0 0.0
2017-Oct-03 07:00N 36°50' E 030°36'0 0.0
2017-Oct-03 06:30N 36°50' E 030°36'0 0.0
2017-Oct-03 06:00N 36°50' E 030°36'0 0.0
2017-Oct-03 05:30N 36°50' E 030°36'0 0.0
2017-Oct-03 05:00N 36°50' E 030°36'0 0.0
2017-Oct-03 04:30N 36°50' E 030°36'0 0.0
2017-Oct-03 04:00N 36°50' E 030°36'0 0.0
2017-Oct-03 03:30N 36°50' E 030°36'0 0.0
2017-Oct-03 03:00N 36°50' E 030°36'0 0.0
2017-Oct-03 02:30N 36°50' E 030°36'0 0.0
2017-Oct-03 02:00N 36°50' E 030°36'0 0.0
2017-Oct-03 01:30N 36°50' E 030°36'0 0.0
2017-Oct-03 01:00N 36°50' E 030°36'0 0.0
2017-Oct-03 00:30N 36°50' E 030°36'0 0.0
2017-Oct-03 00:00N 36°50' E 030°36'0 0.0
2017-Oct-02 23:30N 36°50' E 030°36'0 0.0
2017-Oct-02 23:00N 36°50' E 030°36'0 0.0
2017-Oct-02 22:30N 36°50' E 030°36'0 0.0
2017-Oct-02 22:00N 36°50' E 030°36'0 0.0
2017-Oct-02 21:30N 36°50' E 030°36'0 0.0
2017-Oct-02 21:00N 36°50' E 030°36'0 0.0
2017-Oct-02 20:30N 36°50' E 030°36'0 0.0
2017-Oct-02 20:00N 36°50' E 030°36'0 0.0
2017-Oct-02 19:30N 36°50' E 030°36'0 0.0
2017-Oct-02 19:00N 36°50' E 030°36'0 0.0
2017-Oct-02 18:30N 36°50' E 030°36'0 0.0
2017-Oct-02 18:00N 36°50' E 030°36'0 0.0
2017-Oct-02 17:30N 36°50' E 030°36'0 0.0
2017-Oct-02 17:00N 36°50' E 030°36'0 0.0
2017-Oct-02 16:30N 36°50' E 030°36'0 0.0
2017-Oct-02 16:00N 36°50' E 030°36'0 0.0
2017-Oct-02 15:30N 36°50' E 030°36'0 0.0
2017-Oct-02 15:00N 36°50' E 030°36'0 0.0
2017-Oct-02 14:30N 36°50' E 030°36'0 0.0
2017-Oct-02 14:00N 36°50' E 030°36'0 0.0
2017-Oct-02 13:30N 36°50' E 030°36'0 0.0
2017-Oct-02 13:00N 36°50' E 030°36'0 0.0
2017-Oct-02 12:30N 36°50' E 030°36'0 0.0
2017-Oct-02 12:00N 36°50' E 030°36'0 0.0
2017-Oct-02 11:30N 36°50' E 030°36'0 0.0
2017-Oct-02 11:00N 36°50' E 030°36'0 0.0
2017-Oct-02 10:30N 36°50' E 030°36'0 0.0
2017-Oct-02 10:00N 36°50' E 030°36'0 0.0
2017-Oct-02 09:30N 36°50' E 030°36'0 0.0
2017-Oct-02 09:00N 36°50' E 030°36'0 0.0
2017-Oct-02 08:30N 36°50' E 030°36'0 0.0
2017-Oct-02 08:00N 36°50' E 030°36'0 0.0
2017-Oct-02 07:30N 36°50' E 030°36'0 0.0
2017-Oct-02 07:00N 36°50' E 030°36'0 0.0
2017-Oct-02 06:30N 36°50' E 030°36'0 0.0
2017-Oct-02 06:00N 36°50' E 030°36'0 0.0
2017-Oct-02 05:30N 36°50' E 030°36'0 0.0
2017-Oct-02 05:00N 36°50' E 030°36'0 0.0
2017-Oct-02 04:30N 36°50' E 030°36'0 0.0
2017-Oct-02 04:00N 36°50' E 030°36'0 0.0
2017-Oct-02 03:30N 36°50' E 030°36'0 0.0
2017-Oct-02 03:00N 36°50' E 030°36'0 0.0
2017-Oct-02 02:30N 36°50' E 030°36'0 0.0
2017-Oct-02 02:00N 36°50' E 030°36'0 0.0
2017-Oct-02 01:30N 36°50' E 030°36'0 0.0
2017-Oct-02 01:00N 36°50' E 030°36'0 0.0
2017-Oct-02 00:30N 36°50' E 030°36'0 0.0
2017-Oct-02 00:00N 36°50' E 030°36'0 0.0
2017-Oct-01 23:30N 36°50' E 030°36'0 0.0
2017-Oct-01 23:00N 36°50' E 030°36'0 0.0
2017-Oct-01 22:30N 36°50' E 030°36'0 0.0
2017-Oct-01 22:00N 36°50' E 030°36'0 0.0
2017-Oct-01 21:30N 36°50' E 030°36'0 0.0
2017-Oct-01 21:00N 36°50' E 030°36'0 0.0
2017-Oct-01 20:30N 36°50' E 030°36'0 0.0
2017-Oct-01 20:00N 36°50' E 030°36'0 0.0
2017-Oct-01 19:30N 36°50' E 030°36'0 0.0
2017-Oct-01 19:00N 36°50' E 030°36'0 0.0
2017-Oct-01 18:30N 36°50' E 030°36'0 0.0
2017-Oct-01 18:00N 36°50' E 030°36'0 0.0
2017-Oct-01 17:30N 36°50' E 030°36'0 0.0
2017-Oct-01 17:00N 36°50' E 030°36'0 0.0
2017-Oct-01 16:30N 36°50' E 030°36'0 0.0
2017-Oct-01 16:00N 36°50' E 030°36'0 0.0
2017-Oct-01 15:30N 36°50' E 030°36'0 0.0
2017-Oct-01 15:00N 36°50' E 030°36'0 0.0
2017-Oct-01 14:30N 36°50' E 030°36'0 0.0
2017-Oct-01 14:00N 36°50' E 030°36'0 0.0
2017-Oct-01 13:30N 36°50' E 030°36'0 0.0
2017-Oct-01 13:00N 36°50' E 030°36'0 0.0
2017-Oct-01 12:30N 36°50' E 030°36'0 0.0
2017-Oct-01 12:00N 36°50' E 030°36'0 0.0
2017-Oct-01 11:30N 36°50' E 030°36'0 0.0
2017-Oct-01 11:00N 36°50' E 030°36'0 0.0
2017-Oct-01 10:30N 36°50' E 030°36'0 0.0
2017-Oct-01 10:00N 36°50' E 030°36'0 0.0
2017-Oct-01 09:30N 36°50' E 030°36'0 0.0
2017-Oct-01 09:00N 36°50' E 030°36'0 0.0
2017-Oct-01 08:30N 36°50' E 030°36'0 0.0
2017-Oct-01 08:00N 36°50' E 030°36'0 0.0
2017-Oct-01 07:30N 36°50' E 030°36'0 0.0
2017-Oct-01 07:00N 36°50' E 030°36'0 0.0
2017-Oct-01 06:30N 36°50' E 030°36'0 0.0
2017-Oct-01 06:00N 36°50' E 030°36'0 0.0
2017-Oct-01 05:30N 36°50' E 030°36'0 0.0
2017-Oct-01 05:00N 36°50' E 030°36'0 0.0
2017-Oct-01 04:30N 36°50' E 030°36'0 0.0
2017-Oct-01 04:00N 36°50' E 030°36'0 0.0
2017-Oct-01 03:30N 36°50' E 030°36'0 0.0
2017-Oct-01 03:00N 36°50' E 030°36'  

Dump ship's entire track history